Burton-on-Trent, United Kingdom
Current Conditions -  °F | °C
As of 4:20 AM on Sunday 26 Oct 2014 (Local Time) from EGNX Reporting Station
Broken Clouds Broken Clouds  
Wind Chill: 11°   Ceiling: 2300
Heat Index: 11°   Visibility: 6mi
Dew Point:   Wind: 13mph
Humidity: 88%   Direction: 200°SSW
Pressure: 30.03"   Gusts: NA
Location:  52.79°N, 1.66°W
Report Text: EGNX 260320Z 20011KT 9999 BKN023 11/09 Q1017
Loading
Personal Weather Stations






























Interactive Weather Map
Tropical Storm Tracking
New forecast layout! Learn more

10-Day Weather Forecast

Advertisements
Track Severe Weather on mobile